International Virtual Aviation Organisation

Russian Federation and Kazakhstan MCD

 

Карточка аэропорта USSS

Внимание!
Информация на этой странице в стадии наполнения.
Если вы не увидели какой-то информации, или заметили неточность - пожалуйста сообщите нам!
Спасибо!
Команда RU-STAFF
Название аэропортаКольцово
Название аэропорта (англ.)Koltsovo
Превышение766 ft. (233.5 m.)
Координаты56°44.586', 60°48.186'
Высота перехода900m
Эшелон переходаQFE>=739mm:FL050; QFE 712mm-738mm:FL060; QFE<=712mm:FL70
Коды ответчика5520-5557
Зона ОрВДЕкатеринбург РПИ (USSV)
Данные METARUSSS 131100Z 26004MPS CAVOK M06/M10 Q1020 R26R/410350 NOSIG RMK QFE744/0992
Проноз погоды (TAF)USSS 130756Z 1309/1409 26003G10MPS 9999 SCT020 BECMG 1317/1319 6000 -SN BKN016 BECMG 1401/1403 28003G09MPS BECMG 1406/1407 9999 NSW SCT020
NOTAMshow/hide NOTAM
AWOS   TABLE

Информация о ВПП

ВПП Длина ВПП (м.) Покрытие Курс ВПП Частота ILS
08L3004Асфальтобетон76111.7
26R3004Асфальтобетон256110.5
08R3026Бетон80109.9
26L3026Бетон260109.5

Диспетчерские позиции

Позывной Наименование органа УВД Частота
USSS_APPКольцово-Подход125.9
USSS_R_APPКольцово-Круг118.7
USSS_TWRКольцово-Старт120.0
USSS_GNDКольцово-Руление119.0
USSSFM1Машина сопровождения119.000
USSS_FSS_CTRКольцово Транзит131.900
USSV_E_CTR
USSV_CTR



Спутниковое изображение